sensor_id;sensor_type;location;lat;lon;timestamp;P1;durP1;ratioP1;P2;durP2;ratioP2
28070;SDS011;15383;48.408;9.968;2023-05-07T00:00:39;3.65;;;2.17;;
28070;SDS011;15383;48.408;9.968;2023-05-07T00:03:05;3.58;;;2.10;;
28070;SDS011;15383;48.408;9.968;2023-05-07T00:05:31;2.25;;;1.92;;
28070;SDS011;15383;48.408;9.968;2023-05-07T00:07:57;2.47;;;2.00;;
28070;SDS011;15383;48.408;9.968;2023-05-07T00:10:23;3.95;;;2.50;;
28070;SDS011;15383;48.408;9.968;2023-05-07T00:12:49;5.07;;;2.10;;
28070;SDS011;15383;48.408;9.968;2023-05-07T00:15:14;2.53;;;2.20;;
28070;SDS011;15383;48.408;9.968;2023-05-07T00:17:40;3.40;;;2.05;;
28070;SDS011;15383;48.408;9.968;2023-05-07T00:20:07;13.18;;;2.80;;
28070;SDS011;15383;48.408;9.968;2023-05-07T00:22:33;4.10;;;2.33;;
28070;SDS011;15383;48.408;9.968;2023-05-07T00:24:59;6.50;;;2.60;;
28070;SDS011;15383;48.408;9.968;2023-05-07T00:27:25;5.95;;;2.67;;
28070;SDS011;15383;48.408;9.968;2023-05-07T00:29:51;4.90;;;2.72;;
28070;SDS011;15383;48.408;9.968;2023-05-07T00:32:16;8.65;;;2.97;;
28070;SDS011;15383;48.408;9.968;2023-05-07T00:34:42;6.28;;;3.03;;
28070;SDS011;15383;48.408;9.968;2023-05-07T00:37:08;9.80;;;3.20;;
28070;SDS011;15383;48.408;9.968;2023-05-07T00:39:34;7.10;;;3.28;;
28070;SDS011;15383;48.408;9.968;2023-05-07T00:42:00;6.28;;;3.40;;
28070;SDS011;15383;48.408;9.968;2023-05-07T00:44:27;6.63;;;3.42;;
28070;SDS011;15383;48.408;9.968;2023-05-07T00:46:54;6.70;;;3.40;;
28070;SDS011;15383;48.408;9.968;2023-05-07T00:49:22;5.03;;;3.33;;
28070;SDS011;15383;48.408;9.968;2023-05-07T00:51:58;3.75;;;2.30;;
28070;SDS011;15383;48.408;9.968;2023-05-07T00:54:25;4.57;;;2.90;;
28070;SDS011;15383;48.408;9.968;2023-05-07T00:56:51;3.97;;;2.90;;
28070;SDS011;15383;48.408;9.968;2023-05-07T00:59:17;8.38;;;3.08;;
28070;SDS011;15383;48.408;9.968;2023-05-07T01:01:43;6.35;;;3.45;;
28070;SDS011;15383;48.408;9.968;2023-05-07T01:04:10;4.60;;;3.00;;
28070;SDS011;15383;48.408;9.968;2023-05-07T01:06:36;7.35;;;3.42;;
28070;SDS011;15383;48.408;9.968;2023-05-07T01:09:02;3.50;;;2.78;;
28070;SDS011;15383;48.408;9.968;2023-05-07T01:11:29;5.05;;;3.47;;
28070;SDS011;15383;48.408;9.968;2023-05-07T01:13:55;11.48;;;3.05;;
28070;SDS011;15383;48.408;9.968;2023-05-07T01:16:22;7.10;;;3.10;;
28070;SDS011;15383;48.408;9.968;2023-05-07T01:18:48;5.70;;;2.85;;
28070;SDS011;15383;48.408;9.968;2023-05-07T01:21:15;3.13;;;2.38;;
28070;SDS011;15383;48.408;9.968;2023-05-07T01:23:42;4.32;;;2.50;;
28070;SDS011;15383;48.408;9.968;2023-05-07T01:26:09;4.75;;;3.08;;
28070;SDS011;15383;48.408;9.968;2023-05-07T01:28:35;8.18;;;3.35;;
28070;SDS011;15383;48.408;9.968;2023-05-07T01:31:01;7.00;;;3.40;;
28070;SDS011;15383;48.408;9.968;2023-05-07T01:33:29;5.40;;;3.13;;
28070;SDS011;15383;48.408;9.968;2023-05-07T01:35:58;5.53;;;2.53;;
28070;SDS011;15383;48.408;9.968;2023-05-07T01:38:27;4.22;;;2.40;;
28070;SDS011;15383;48.408;9.968;2023-05-07T01:40:53;2.63;;;2.35;;
28070;SDS011;15383;48.408;9.968;2023-05-07T01:43:20;2.60;;;2.38;;
28070;SDS011;15383;48.408;9.968;2023-05-07T01:45:46;2.55;;;2.35;;
28070;SDS011;15383;48.408;9.968;2023-05-07T01:48:14;7.60;;;2.95;;
28070;SDS011;15383;48.408;9.968;2023-05-07T01:50:41;5.80;;;2.65;;
28070;SDS011;15383;48.408;9.968;2023-05-07T01:53:09;3.35;;;2.70;;
28070;SDS011;15383;48.408;9.968;2023-05-07T01:55:35;5.10;;;2.75;;
28070;SDS011;15383;48.408;9.968;2023-05-07T01:58:02;6.20;;;2.17;;
28070;SDS011;15383;48.408;9.968;2023-05-07T02:00:28;5.32;;;2.40;;
28070;SDS011;15383;48.408;9.968;2023-05-07T02:02:54;7.88;;;2.50;;
28070;SDS011;15383;48.408;9.968;2023-05-07T02:05:20;8.00;;;2.88;;
28070;SDS011;15383;48.408;9.968;2023-05-07T02:07:46;5.38;;;2.72;;
28070;SDS011;15383;48.408;9.968;2023-05-07T02:10:11;6.70;;;2.58;;
28070;SDS011;15383;48.408;9.968;2023-05-07T02:12:37;2.47;;;2.17;;
28070;SDS011;15383;48.408;9.968;2023-05-07T02:15:03;3.88;;;2.83;;
28070;SDS011;15383;48.408;9.968;2023-05-07T02:17:30;6.45;;;2.60;;
28070;SDS011;15383;48.408;9.968;2023-05-07T02:19:58;8.90;;;2.70;;
28070;SDS011;15383;48.408;9.968;2023-05-07T02:22:24;6.65;;;2.80;;
28070;SDS011;15383;48.408;9.968;2023-05-07T02:24:50;5.25;;;2.65;;
28070;SDS011;15383;48.408;9.968;2023-05-07T02:27:16;6.40;;;3.67;;
28070;SDS011;15383;48.408;9.968;2023-05-07T02:29:42;6.85;;;3.20;;
28070;SDS011;15383;48.408;9.968;2023-05-07T02:32:08;4.85;;;3.03;;
28070;SDS011;15383;48.408;9.968;2023-05-07T02:34:34;3.80;;;2.67;;
28070;SDS011;15383;48.408;9.968;2023-05-07T02:37:00;5.45;;;2.95;;
28070;SDS011;15383;48.408;9.968;2023-05-07T02:39:26;4.47;;;2.45;;
28070;SDS011;15383;48.408;9.968;2023-05-07T02:41:52;5.63;;;3.00;;
28070;SDS011;15383;48.408;9.968;2023-05-07T02:44:18;7.50;;;3.45;;
28070;SDS011;15383;48.408;9.968;2023-05-07T02:46:44;6.53;;;2.90;;
28070;SDS011;15383;48.408;9.968;2023-05-07T02:49:10;4.43;;;2.72;;
28070;SDS011;15383;48.408;9.968;2023-05-07T02:51:35;2.95;;;2.60;;
28070;SDS011;15383;48.408;9.968;2023-05-07T02:54:01;7.00;;;2.83;;
28070;SDS011;15383;48.408;9.968;2023-05-07T02:56:27;4.47;;;3.20;;
28070;SDS011;15383;48.408;9.968;2023-05-07T02:58:52;3.30;;;2.58;;
28070;SDS011;15383;48.408;9.968;2023-05-07T03:01:18;5.85;;;2.95;;
28070;SDS011;15383;48.408;9.968;2023-05-07T03:03:45;3.88;;;2.97;;
28070;SDS011;15383;48.408;9.968;2023-05-07T03:06:11;4.45;;;2.78;;
28070;SDS011;15383;48.408;9.968;2023-05-07T03:08:37;5.18;;;3.35;;
28070;SDS011;15383;48.408;9.968;2023-05-07T03:11:02;5.90;;;2.72;;
28070;SDS011;15383;48.408;9.968;2023-05-07T03:13:28;4.97;;;3.00;;
28070;SDS011;15383;48.408;9.968;2023-05-07T03:15:54;3.15;;;2.60;;
28070;SDS011;15383;48.408;9.968;2023-05-07T03:18:20;5.13;;;3.63;;
28070;SDS011;15383;48.408;9.968;2023-05-07T03:20:46;3.70;;;2.90;;
28070;SDS011;15383;48.408;9.968;2023-05-07T03:23:13;9.00;;;3.15;;
28070;SDS011;15383;48.408;9.968;2023-05-07T03:25:38;3.67;;;2.72;;
28070;SDS011;15383;48.408;9.968;2023-05-07T03:28:04;7.03;;;3.55;;
28070;SDS011;15383;48.408;9.968;2023-05-07T03:30:30;4.85;;;2.92;;
28070;SDS011;15383;48.408;9.968;2023-05-07T03:32:56;5.03;;;2.97;;
28070;SDS011;15383;48.408;9.968;2023-05-07T03:35:22;5.18;;;3.22;;
28070;SDS011;15383;48.408;9.968;2023-05-07T03:37:48;5.63;;;3.00;;
28070;SDS011;15383;48.408;9.968;2023-05-07T03:40:13;10.38;;;3.28;;
28070;SDS011;15383;48.408;9.968;2023-05-07T03:42:40;5.75;;;3.15;;
28070;SDS011;15383;48.408;9.968;2023-05-07T03:45:06;4.20;;;2.88;;
28070;SDS011;15383;48.408;9.968;2023-05-07T03:47:32;4.13;;;3.22;;
28070;SDS011;15383;48.408;9.968;2023-05-07T03:49:58;4.93;;;3.13;;
28070;SDS011;15383;48.408;9.968;2023-05-07T03:52:24;5.10;;;3.30;;
28070;SDS011;15383;48.408;9.968;2023-05-07T03:54:51;3.72;;;2.88;;
28070;SDS011;15383;48.408;9.968;2023-05-07T03:57:18;4.22;;;3.13;;
28070;SDS011;15383;48.408;9.968;2023-05-07T03:59:44;7.93;;;2.63;;
28070;SDS011;15383;48.408;9.968;2023-05-07T04:02:10;4.90;;;3.10;;
28070;SDS011;15383;48.408;9.968;2023-05-07T04:04:36;5.47;;;3.30;;
28070;SDS011;15383;48.408;9.968;2023-05-07T04:07:02;6.88;;;3.05;;
28070;SDS011;15383;48.408;9.968;2023-05-07T04:09:29;5.43;;;3.08;;
28070;SDS011;15383;48.408;9.968;2023-05-07T04:11:55;4.85;;;3.47;;
28070;SDS011;15383;48.408;9.968;2023-05-07T04:14:21;4.97;;;3.13;;
28070;SDS011;15383;48.408;9.968;2023-05-07T04:16:47;5.28;;;2.88;;
28070;SDS011;15383;48.408;9.968;2023-05-07T04:19:12;6.90;;;2.50;;
28070;SDS011;15383;48.408;9.968;2023-05-07T04:21:38;4.95;;;3.15;;
28070;SDS011;15383;48.408;9.968;2023-05-07T04:24:05;5.65;;;3.20;;
28070;SDS011;15383;48.408;9.968;2023-05-07T04:26:31;4.22;;;3.03;;
28070;SDS011;15383;48.408;9.968;2023-05-07T04:28:56;7.65;;;3.15;;
28070;SDS011;15383;48.408;9.968;2023-05-07T04:31:24;4.15;;;3.00;;
28070;SDS011;15383;48.408;9.968;2023-05-07T04:33:50;4.50;;;3.35;;
28070;SDS011;15383;48.408;9.968;2023-05-07T04:36:16;5.60;;;2.72;;
28070;SDS011;15383;48.408;9.968;2023-05-07T04:38:42;4.07;;;2.78;;
28070;SDS011;15383;48.408;9.968;2023-05-07T04:41:08;6.70;;;2.92;;
28070;SDS011;15383;48.408;9.968;2023-05-07T04:43:34;10.93;;;3.20;;
28070;SDS011;15383;48.408;9.968;2023-05-07T04:46:00;5.05;;;3.20;;
28070;SDS011;15383;48.408;9.968;2023-05-07T04:48:26;7.18;;;3.30;;
28070;SDS011;15383;48.408;9.968;2023-05-07T04:50:53;6.57;;;3.38;;
28070;SDS011;15383;48.408;9.968;2023-05-07T04:53:19;5.28;;;3.55;;
28070;SDS011;15383;48.408;9.968;2023-05-07T04:55:46;5.45;;;3.47;;
28070;SDS011;15383;48.408;9.968;2023-05-07T04:58:12;7.25;;;3.25;;
28070;SDS011;15383;48.408;9.968;2023-05-07T05:00:38;7.22;;;3.10;;
28070;SDS011;15383;48.408;9.968;2023-05-07T05:03:05;4.68;;;3.15;;
28070;SDS011;15383;48.408;9.968;2023-05-07T05:05:32;5.90;;;3.45;;
28070;SDS011;15383;48.408;9.968;2023-05-07T05:07:57;8.55;;;3.05;;
28070;SDS011;15383;48.408;9.968;2023-05-07T05:10:23;6.00;;;3.08;;
28070;SDS011;15383;48.408;9.968;2023-05-07T05:12:49;3.25;;;2.90;;
28070;SDS011;15383;48.408;9.968;2023-05-07T05:15:15;6.70;;;3.55;;
28070;SDS011;15383;48.408;9.968;2023-05-07T05:17:41;8.77;;;2.50;;
28070;SDS011;15383;48.408;9.968;2023-05-07T05:20:07;5.22;;;3.10;;
28070;SDS011;15383;48.408;9.968;2023-05-07T05:22:35;4.05;;;3.03;;
28070;SDS011;15383;48.408;9.968;2023-05-07T05:25:01;5.85;;;3.00;;
28070;SDS011;15383;48.408;9.968;2023-05-07T05:27:27;4.57;;;2.80;;
28070;SDS011;15383;48.408;9.968;2023-05-07T05:29:54;3.13;;;2.65;;
28070;SDS011;15383;48.408;9.968;2023-05-07T05:32:20;5.30;;;3.10;;
28070;SDS011;15383;48.408;9.968;2023-05-07T05:34:46;3.17;;;2.47;;
28070;SDS011;15383;48.408;9.968;2023-05-07T05:37:12;6.70;;;3.13;;
28070;SDS011;15383;48.408;9.968;2023-05-07T05:39:38;3.60;;;2.85;;
28070;SDS011;15383;48.408;9.968;2023-05-07T05:42:03;6.38;;;3.05;;
28070;SDS011;15383;48.408;9.968;2023-05-07T05:44:29;7.80;;;2.70;;
28070;SDS011;15383;48.408;9.968;2023-05-07T05:46:55;7.20;;;2.42;;
28070;SDS011;15383;48.408;9.968;2023-05-07T05:49:22;5.00;;;2.40;;
28070;SDS011;15383;48.408;9.968;2023-05-07T05:51:48;4.82;;;2.75;;
28070;SDS011;15383;48.408;9.968;2023-05-07T05:54:14;3.05;;;2.33;;
28070;SDS011;15383;48.408;9.968;2023-05-07T05:56:40;5.40;;;2.53;;
28070;SDS011;15383;48.408;9.968;2023-05-07T05:59:06;5.05;;;2.80;;
28070;SDS011;15383;48.408;9.968;2023-05-07T06:01:32;4.70;;;2.47;;
28070;SDS011;15383;48.408;9.968;2023-05-07T06:03:58;3.30;;;2.70;;
28070;SDS011;15383;48.408;9.968;2023-05-07T06:06:24;5.85;;;2.58;;
28070;SDS011;15383;48.408;9.968;2023-05-07T06:08:49;5.28;;;3.10;;
28070;SDS011;15383;48.408;9.968;2023-05-07T06:11:15;8.32;;;3.47;;
28070;SDS011;15383;48.408;9.968;2023-05-07T06:13:41;6.78;;;3.58;;
28070;SDS011;15383;48.408;9.968;2023-05-07T06:16:07;5.65;;;2.85;;
28070;SDS011;15383;48.408;9.968;2023-05-07T06:18:32;6.25;;;3.45;;
28070;SDS011;15383;48.408;9.968;2023-05-07T06:21:01;10.02;;;3.40;;
28070;SDS011;15383;48.408;9.968;2023-05-07T06:23:27;5.13;;;3.30;;
28070;SDS011;15383;48.408;9.968;2023-05-07T06:25:52;4.68;;;2.75;;
28070;SDS011;15383;48.408;9.968;2023-05-07T06:28:18;7.18;;;3.10;;
28070;SDS011;15383;48.408;9.968;2023-05-07T06:30:44;4.53;;;3.33;;
28070;SDS011;15383;48.408;9.968;2023-05-07T06:33:10;5.07;;;4.00;;
28070;SDS011;15383;48.408;9.968;2023-05-07T06:35:35;6.57;;;3.33;;
28070;SDS011;15383;48.408;9.968;2023-05-07T06:38:01;5.95;;;3.78;;
28070;SDS011;15383;48.408;9.968;2023-05-07T06:40:27;4.60;;;3.78;;
28070;SDS011;15383;48.408;9.968;2023-05-07T06:42:52;6.07;;;3.72;;
28070;SDS011;15383;48.408;9.968;2023-05-07T06:45:19;9.25;;;3.63;;
28070;SDS011;15383;48.408;9.968;2023-05-07T06:47:45;6.47;;;3.97;;
28070;SDS011;15383;48.408;9.968;2023-05-07T06:50:11;10.98;;;4.30;;
28070;SDS011;15383;48.408;9.968;2023-05-07T06:52:37;6.57;;;4.72;;
28070;SDS011;15383;48.408;9.968;2023-05-07T06:55:03;6.32;;;4.32;;
28070;SDS011;15383;48.408;9.968;2023-05-07T06:57:29;7.05;;;4.47;;
28070;SDS011;15383;48.408;9.968;2023-05-07T06:59:54;6.55;;;4.07;;
28070;SDS011;15383;48.408;9.968;2023-05-07T07:02:20;8.68;;;4.57;;
28070;SDS011;15383;48.408;9.968;2023-05-07T07:04:47;9.88;;;4.63;;
28070;SDS011;15383;48.408;9.968;2023-05-07T07:07:13;6.60;;;4.57;;
28070;SDS011;15383;48.408;9.968;2023-05-07T07:09:39;5.45;;;3.47;;
28070;SDS011;15383;48.408;9.968;2023-05-07T07:12:05;6.78;;;4.05;;
28070;SDS011;15383;48.408;9.968;2023-05-07T07:14:30;8.50;;;5.25;;
28070;SDS011;15383;48.408;9.968;2023-05-07T07:16:56;11.20;;;4.35;;
28070;SDS011;15383;48.408;9.968;2023-05-07T07:19:22;7.85;;;4.90;;
28070;SDS011;15383;48.408;9.968;2023-05-07T07:21:47;7.75;;;4.50;;
28070;SDS011;15383;48.408;9.968;2023-05-07T07:24:14;6.43;;;4.72;;
28070;SDS011;15383;48.408;9.968;2023-05-07T07:26:46;7.47;;;4.50;;
28070;SDS011;15383;48.408;9.968;2023-05-07T07:29:12;6.85;;;4.20;;
28070;SDS011;15383;48.408;9.968;2023-05-07T07:31:37;7.65;;;4.35;;
28070;SDS011;15383;48.408;9.968;2023-05-07T07:34:03;7.63;;;4.97;;
28070;SDS011;15383;48.408;9.968;2023-05-07T07:36:29;9.55;;;4.47;;
28070;SDS011;15383;48.408;9.968;2023-05-07T07:38:58;7.40;;;4.78;;
28070;SDS011;15383;48.408;9.968;2023-05-07T07:41:23;6.57;;;4.78;;
28070;SDS011;15383;48.408;9.968;2023-05-07T07:43:49;5.97;;;4.35;;
28070;SDS011;15383;48.408;9.968;2023-05-07T07:46:15;9.75;;;4.65;;
28070;SDS011;15383;48.408;9.968;2023-05-07T07:48:40;6.45;;;4.35;;
28070;SDS011;15383;48.408;9.968;2023-05-07T07:51:06;8.63;;;4.53;;
28070;SDS011;15383;48.408;9.968;2023-05-07T07:53:32;14.95;;;4.95;;
28070;SDS011;15383;48.408;9.968;2023-05-07T07:55:57;7.68;;;4.82;;
28070;SDS011;15383;48.408;9.968;2023-05-07T07:58:23;6.32;;;4.50;;
28070;SDS011;15383;48.408;9.968;2023-05-07T08:00:49;7.20;;;4.78;;
28070;SDS011;15383;48.408;9.968;2023-05-07T08:03:16;7.13;;;4.72;;
28070;SDS011;15383;48.408;9.968;2023-05-07T08:05:42;9.40;;;4.78;;
28070;SDS011;15383;48.408;9.968;2023-05-07T08:08:08;5.65;;;3.25;;
28070;SDS011;15383;48.408;9.968;2023-05-07T08:10:35;7.95;;;5.18;;
28070;SDS011;15383;48.408;9.968;2023-05-07T08:13:03;7.13;;;5.00;;
28070;SDS011;15383;48.408;9.968;2023-05-07T08:15:38;7.82;;;5.00;;
28070;SDS011;15383;48.408;9.968;2023-05-07T08:18:03;6.15;;;4.88;;
28070;SDS011;15383;48.408;9.968;2023-05-07T08:20:29;9.43;;;4.88;;
28070;SDS011;15383;48.408;9.968;2023-05-07T08:22:55;7.85;;;5.13;;
28070;SDS011;15383;48.408;9.968;2023-05-07T08:25:21;7.00;;;4.22;;
28070;SDS011;15383;48.408;9.968;2023-05-07T08:27:46;6.20;;;3.88;;
28070;SDS011;15383;48.408;9.968;2023-05-07T08:30:12;5.45;;;4.47;;
28070;SDS011;15383;48.408;9.968;2023-05-07T08:32:38;7.22;;;3.85;;
28070;SDS011;15383;48.408;9.968;2023-05-07T08:35:04;12.20;;;4.97;;
28070;SDS011;15383;48.408;9.968;2023-05-07T08:37:33;9.27;;;3.70;;
28070;SDS011;15383;48.408;9.968;2023-05-07T08:39:59;5.80;;;4.68;;
28070;SDS011;15383;48.408;9.968;2023-05-07T08:42:25;13.75;;;5.32;;
28070;SDS011;15383;48.408;9.968;2023-05-07T08:44:52;8.55;;;5.03;;
28070;SDS011;15383;48.408;9.968;2023-05-07T08:47:22;7.00;;;4.82;;
28070;SDS011;15383;48.408;9.968;2023-05-07T08:49:53;8.75;;;4.10;;
28070;SDS011;15383;48.408;9.968;2023-05-07T08:52:19;5.05;;;3.88;;
28070;SDS011;15383;48.408;9.968;2023-05-07T08:54:45;7.30;;;4.75;;
28070;SDS011;15383;48.408;9.968;2023-05-07T08:57:12;14.43;;;5.60;;
28070;SDS011;15383;48.408;9.968;2023-05-07T08:59:37;6.93;;;4.75;;
28070;SDS011;15383;48.408;9.968;2023-05-07T09:02:04;4.75;;;3.38;;
28070;SDS011;15383;48.408;9.968;2023-05-07T09:04:35;9.68;;;4.53;;
28070;SDS011;15383;48.408;9.968;2023-05-07T09:07:00;6.47;;;4.93;;
28070;SDS011;15383;48.408;9.968;2023-05-07T09:09:31;7.47;;;4.87;;
28070;SDS011;15383;48.408;9.968;2023-05-07T09:11:58;6.57;;;4.30;;
28070;SDS011;15383;48.408;9.968;2023-05-07T09:14:24;8.80;;;4.88;;
28070;SDS011;15383;48.408;9.968;2023-05-07T09:16:52;8.07;;;4.65;;
28070;SDS011;15383;48.408;9.968;2023-05-07T09:19:22;7.82;;;4.60;;
28070;SDS011;15383;48.408;9.968;2023-05-07T09:21:49;9.65;;;4.95;;
28070;SDS011;15383;48.408;9.968;2023-05-07T09:24:15;8.40;;;4.95;;
28070;SDS011;15383;48.408;9.968;2023-05-07T09:26:41;6.05;;;4.47;;
28070;SDS011;15383;48.408;9.968;2023-05-07T09:29:09;9.50;;;5.07;;
28070;SDS011;15383;48.408;9.968;2023-05-07T09:31:38;10.18;;;5.45;;
28070;SDS011;15383;48.408;9.968;2023-05-07T09:34:05;8.32;;;4.82;;
28070;SDS011;15383;48.408;9.968;2023-05-07T09:36:31;7.55;;;4.72;;
28070;SDS011;15383;48.408;9.968;2023-05-07T09:39:00;10.35;;;5.47;;
28070;SDS011;15383;48.408;9.968;2023-05-07T09:41:26;9.50;;;5.72;;
28070;SDS011;15383;48.408;9.968;2023-05-07T09:43:55;13.82;;;5.47;;
28070;SDS011;15383;48.408;9.968;2023-05-07T09:46:22;6.22;;;4.30;;
28070;SDS011;15383;48.408;9.968;2023-05-07T09:48:52;4.15;;;3.58;;
28070;SDS011;15383;48.408;9.968;2023-05-07T09:54:08;5.40;;;3.70;;
28070;SDS011;15383;48.408;9.968;2023-05-07T09:56:35;8.52;;;4.55;;
28070;SDS011;15383;48.408;9.968;2023-05-07T09:59:02;6.80;;;3.63;;
28070;SDS011;15383;48.408;9.968;2023-05-07T10:01:30;6.80;;;4.25;;
28070;SDS011;15383;48.408;9.968;2023-05-07T10:03:57;8.18;;;4.45;;
28070;SDS011;15383;48.408;9.968;2023-05-07T10:06:24;5.78;;;4.60;;
28070;SDS011;15383;48.408;9.968;2023-05-07T10:08:50;7.30;;;4.90;;
28070;SDS011;15383;48.408;9.968;2023-05-07T10:11:18;5.57;;;4.00;;
28070;SDS011;15383;48.408;9.968;2023-05-07T10:13:44;4.55;;;3.13;;
28070;SDS011;15383;48.408;9.968;2023-05-07T10:16:12;6.43;;;3.95;;
28070;SDS011;15383;48.408;9.968;2023-05-07T10:18:40;7.70;;;4.38;;
28070;SDS011;15383;48.408;9.968;2023-05-07T10:21:19;7.18;;;4.10;;
28070;SDS011;15383;48.408;9.968;2023-05-07T10:23:49;13.98;;;4.47;;
28070;SDS011;15383;48.408;9.968;2023-05-07T10:26:17;7.60;;;4.47;;
28070;SDS011;15383;48.408;9.968;2023-05-07T10:28:46;7.70;;;4.75;;
28070;SDS011;15383;48.408;9.968;2023-05-07T10:33:44;6.80;;;4.35;;
28070;SDS011;15383;48.408;9.968;2023-05-07T10:36:12;6.38;;;3.88;;
28070;SDS011;15383;48.408;9.968;2023-05-07T10:38:38;5.95;;;3.63;;
28070;SDS011;15383;48.408;9.968;2023-05-07T10:41:05;7.40;;;4.47;;
28070;SDS011;15383;48.408;9.968;2023-05-07T10:43:38;7.45;;;4.78;;
28070;SDS011;15383;48.408;9.968;2023-05-07T10:46:10;7.90;;;4.32;;
28070;SDS011;15383;48.408;9.968;2023-05-07T10:51:32;11.02;;;4.32;;
28070;SDS011;15383;48.408;9.968;2023-05-07T10:56:37;5.18;;;3.92;;
28070;SDS011;15383;48.408;9.968;2023-05-07T11:01:55;7.28;;;4.95;;
28070;SDS011;15383;48.408;9.968;2023-05-07T11:04:27;12.75;;;4.60;;
28070;SDS011;15383;48.408;9.968;2023-05-07T11:15:02;7.07;;;4.97;;
28070;SDS011;15383;48.408;9.968;2023-05-07T11:17:29;5.60;;;4.03;;
28070;SDS011;15383;48.408;9.968;2023-05-07T11:20:00;5.07;;;3.75;;
28070;SDS011;15383;48.408;9.968;2023-05-07T11:25:06;6.20;;;4.82;;
28070;SDS011;15383;48.408;9.968;2023-05-07T11:27:32;9.20;;;5.25;;
28070;SDS011;15383;48.408;9.968;2023-05-07T11:29:58;8.73;;;5.72;;
28070;SDS011;15383;48.408;9.968;2023-05-07T11:32:27;8.95;;;4.78;;
28070;SDS011;15383;48.408;9.968;2023-05-07T11:34:54;7.93;;;5.78;;
28070;SDS011;15383;48.408;9.968;2023-05-07T11:37:21;6.75;;;4.10;;
28070;SDS011;15383;48.408;9.968;2023-05-07T11:39:48;5.55;;;4.28;;
28070;SDS011;15383;48.408;9.968;2023-05-07T11:42:28;4.40;;;3.15;;
28070;SDS011;15383;48.408;9.968;2023-05-07T11:44:55;7.68;;;3.65;;
28070;SDS011;15383;48.408;9.968;2023-05-07T11:47:21;10.48;;;4.88;;
28070;SDS011;15383;48.408;9.968;2023-05-07T11:49:47;7.75;;;4.72;;
28070;SDS011;15383;48.408;9.968;2023-05-07T11:52:15;9.38;;;5.50;;
28070;SDS011;15383;48.408;9.968;2023-05-07T11:54:43;9.95;;;5.00;;
28070;SDS011;15383;48.408;9.968;2023-05-07T11:57:18;9.25;;;5.05;;
28070;SDS011;15383;48.408;9.968;2023-05-07T11:59:43;8.13;;;4.55;;
28070;SDS011;15383;48.408;9.968;2023-05-07T12:02:10;5.53;;;3.28;;
28070;SDS011;15383;48.408;9.968;2023-05-07T12:04:35;4.93;;;3.35;;
28070;SDS011;15383;48.408;9.968;2023-05-07T12:07:03;4.90;;;3.55;;
28070;SDS011;15383;48.408;9.968;2023-05-07T12:09:28;8.48;;;3.10;;
28070;SDS011;15383;48.408;9.968;2023-05-07T12:11:54;4.38;;;3.50;;
28070;SDS011;15383;48.408;9.968;2023-05-07T12:14:21;6.82;;;3.65;;
28070;SDS011;15383;48.408;9.968;2023-05-07T12:16:47;5.90;;;4.18;;
28070;SDS011;15383;48.408;9.968;2023-05-07T12:19:13;5.20;;;2.90;;
28070;SDS011;15383;48.408;9.968;2023-05-07T12:21:39;8.32;;;3.42;;
28070;SDS011;15383;48.408;9.968;2023-05-07T12:24:05;6.85;;;3.63;;
28070;SDS011;15383;48.408;9.968;2023-05-07T12:26:31;5.65;;;3.10;;
28070;SDS011;15383;48.408;9.968;2023-05-07T12:28:57;7.07;;;3.70;;
28070;SDS011;15383;48.408;9.968;2023-05-07T12:31:25;3.80;;;3.25;;
28070;SDS011;15383;48.408;9.968;2023-05-07T12:33:51;4.35;;;3.15;;
28070;SDS011;15383;48.408;9.968;2023-05-07T12:36:18;5.18;;;2.72;;
28070;SDS011;15383;48.408;9.968;2023-05-07T12:38:43;5.40;;;2.78;;
28070;SDS011;15383;48.408;9.968;2023-05-07T12:41:10;8.45;;;3.03;;
28070;SDS011;15383;48.408;9.968;2023-05-07T12:43:37;7.45;;;3.00;;
28070;SDS011;15383;48.408;9.968;2023-05-07T12:46:04;4.60;;;2.50;;
28070;SDS011;15383;48.408;9.968;2023-05-07T12:48:31;3.42;;;2.75;;
28070;SDS011;15383;48.408;9.968;2023-05-07T12:50:58;5.35;;;3.25;;
28070;SDS011;15383;48.408;9.968;2023-05-07T12:53:26;8.20;;;3.00;;
28070;SDS011;15383;48.408;9.968;2023-05-07T12:55:56;7.05;;;2.95;;
28070;SDS011;15383;48.408;9.968;2023-05-07T12:58:23;2.78;;;2.30;;
28070;SDS011;15383;48.408;9.968;2023-05-07T13:00:50;4.50;;;2.55;;
28070;SDS011;15383;48.408;9.968;2023-05-07T13:03:26;3.92;;;2.22;;
28070;SDS011;15383;48.408;9.968;2023-05-07T13:05:54;2.88;;;2.15;;
28070;SDS011;15383;48.408;9.968;2023-05-07T13:08:26;3.40;;;2.50;;
28070;SDS011;15383;48.408;9.968;2023-05-07T13:10:57;5.88;;;2.22;;
28070;SDS011;15383;48.408;9.968;2023-05-07T13:13:28;4.95;;;2.70;;
28070;SDS011;15383;48.408;9.968;2023-05-07T13:15:57;4.18;;;2.63;;
28070;SDS011;15383;48.408;9.968;2023-05-07T13:18:24;4.47;;;2.60;;
28070;SDS011;15383;48.408;9.968;2023-05-07T13:20:51;4.35;;;2.47;;
28070;SDS011;15383;48.408;9.968;2023-05-07T13:23:20;3.85;;;2.25;;
28070;SDS011;15383;48.408;9.968;2023-05-07T13:25:45;2.20;;;2.00;;
28070;SDS011;15383;48.408;9.968;2023-05-07T13:28:11;3.20;;;2.47;;
28070;SDS011;15383;48.408;9.968;2023-05-07T13:30:37;3.30;;;2.22;;
28070;SDS011;15383;48.408;9.968;2023-05-07T13:33:03;3.13;;;2.10;;
28070;SDS011;15383;48.408;9.968;2023-05-07T13:35:29;4.78;;;2.40;;
28070;SDS011;15383;48.408;9.968;2023-05-07T13:37:55;2.78;;;1.92;;
28070;SDS011;15383;48.408;9.968;2023-05-07T13:40:21;3.97;;;2.05;;
28070;SDS011;15383;48.408;9.968;2023-05-07T13:42:48;6.65;;;2.47;;
28070;SDS011;15383;48.408;9.968;2023-05-07T13:45:14;4.03;;;2.45;;
28070;SDS011;15383;48.408;9.968;2023-05-07T13:47:43;2.95;;;1.95;;
28070;SDS011;15383;48.408;9.968;2023-05-07T13:50:11;4.28;;;1.98;;
28070;SDS011;15383;48.408;9.968;2023-05-07T13:52:38;2.20;;;1.65;;
28070;SDS011;15383;48.408;9.968;2023-05-07T13:55:08;8.23;;;4.07;;
28070;SDS011;15383;48.408;9.968;2023-05-07T13:57:35;6.57;;;2.53;;
28070;SDS011;15383;48.408;9.968;2023-05-07T14:00:02;4.60;;;2.05;;
28070;SDS011;15383;48.408;9.968;2023-05-07T14:02:30;2.53;;;1.98;;
28070;SDS011;15383;48.408;9.968;2023-05-07T14:04:56;4.60;;;2.75;;
28070;SDS011;15383;48.408;9.968;2023-05-07T14:07:21;3.95;;;2.08;;
28070;SDS011;15383;48.408;9.968;2023-05-07T14:09:47;3.00;;;1.70;;
28070;SDS011;15383;48.408;9.968;2023-05-07T14:12:13;5.88;;;2.28;;
28070;SDS011;15383;48.408;9.968;2023-05-07T14:14:38;3.13;;;1.88;;
28070;SDS011;15383;48.408;9.968;2023-05-07T14:17:04;1.85;;;1.67;;
28070;SDS011;15383;48.408;9.968;2023-05-07T14:19:30;6.78;;;2.10;;
28070;SDS011;15383;48.408;9.968;2023-05-07T14:21:56;4.18;;;1.98;;
28070;SDS011;15383;48.408;9.968;2023-05-07T14:24:21;3.08;;;1.80;;
28070;SDS011;15383;48.408;9.968;2023-05-07T14:26:47;2.95;;;1.83;;
28070;SDS011;15383;48.408;9.968;2023-05-07T14:29:12;5.28;;;2.10;;
28070;SDS011;15383;48.408;9.968;2023-05-07T14:31:40;1.95;;;1.50;;
28070;SDS011;15383;48.408;9.968;2023-05-07T14:34:06;4.57;;;2.10;;
28070;SDS011;15383;48.408;9.968;2023-05-07T14:36:32;4.13;;;1.75;;
28070;SDS011;15383;48.408;9.968;2023-05-07T14:38:57;2.67;;;2.05;;
28070;SDS011;15383;48.408;9.968;2023-05-07T14:41:27;2.65;;;2.13;;
28070;SDS011;15383;48.408;9.968;2023-05-07T14:43:53;4.72;;;2.08;;
28070;SDS011;15383;48.408;9.968;2023-05-07T14:46:19;2.85;;;2.00;;
28070;SDS011;15383;48.408;9.968;2023-05-07T14:48:45;5.90;;;2.30;;
28070;SDS011;15383;48.408;9.968;2023-05-07T14:51:11;2.15;;;1.95;;
